Time;durP1;ratioP1;P1;durP2;ratioP2;P2;SDS_P1;SDS_P2;PMS_P1;PMS_P2;Temp;Humidity;BMP_temperature;BMP_pressure;BME280_temperature;BME280_humidity;BME280_pressure;Samples;Min_cycle;Max_cycle;Signal;HPM_P1;HPM_P2
2024/01/08 00:00:07;;;;;;;6.53;5.10;;;7.50;53.30;;;;;;348144;28;1348;-56
2024/01/08 00:00:18;;;;;;;7.28;5.40;;;7.50;53.30;;;;;;348252;28;1036;-58
2024/01/08 00:00:29;;;;;;;7.47;5.43;;;7.50;53.30;;;;;;348282;28;1026;-55
2024/01/08 00:00:40;;;;;;;7.50;5.30;;;7.50;53.20;;;;;;348189;28;963;-56
2024/01/08 00:00:51;;;;;;;7.72;5.43;;;7.50;53.20;;;;;;348265;28;1003;-55
2024/01/08 00:01:01;;;;;;;7.70;5.43;;;7.50;53.20;;;;;;348186;28;1117;-56
2024/01/08 00:01:12;;;;;;;7.55;5.50;;;7.50;53.20;;;;;;348230;28;872;-55
2024/01/08 00:01:23;;;;;;;7.15;5.47;;;7.60;53.30;;;;;;348300;28;1011;-56
2024/01/08 00:01:35;;;;;;;7.28;5.60;;;7.60;53.30;;;;;;348135;28;1091;-56
2024/01/08 00:01:50;;;;;;;7.93;5.75;;;7.60;53.30;;;;;;348317;28;938;-56
2024/01/08 00:02:01;;;;;;;8.90;5.65;;;7.50;53.30;;;;;;348147;28;1805;-56
2024/01/08 00:02:12;;;;;;;9.85;5.72;;;7.50;53.20;;;;;;348260;28;1426;-56
2024/01/08 00:02:22;;;;;;;9.70;5.68;;;7.60;53.10;;;;;;348152;28;979;-58
2024/01/08 00:02:33;;;;;;;8.43;5.68;;;7.60;53.10;;;;;;348231;28;1287;-55
2024/01/08 00:02:44;;;;;;;7.22;5.70;;;7.50;53.10;;;;;;348301;28;929;-55
2024/01/08 00:02:55;;;;;;;7.82;5.85;;;7.60;53.10;;;;;;348266;28;860;-55
2024/01/08 00:03:05;;;;;;;8.33;5.93;;;7.60;53.10;;;;;;348293;28;861;-56
2024/01/08 00:03:16;;;;;;;8.38;6.15;;;7.50;53.10;;;;;;348150;28;1107;-56
2024/01/08 00:03:27;;;;;;;10.02;6.38;;;7.60;53.10;;;;;;348239;28;1011;-57
2024/01/08 00:03:41;;;;;;;10.02;6.38;;;7.60;53.10;;;;;;348258;28;1188;-56
2024/01/08 00:03:51;;;;;;;8.73;6.00;;;7.60;53.10;;;;;;348174;28;1023;-56
2024/01/08 00:04:03;;;;;;;8.07;6.00;;;7.60;53.10;;;;;;348100;28;1074;-56
2024/01/08 00:04:14;;;;;;;9.93;6.25;;;7.60;53.10;;;;;;348251;28;949;-56
2024/01/08 00:04:25;;;;;;;10.43;6.20;;;7.60;53.10;;;;;;348286;28;853;-56
2024/01/08 00:04:35;;;;;;;10.60;6.03;;;7.60;53.10;;;;;;348237;28;979;-56
2024/01/08 00:04:46;;;;;;;8.32;5.85;;;7.60;53.10;;;;;;348235;28;1146;-56
2024/01/08 00:04:57;;;;;;;7.87;5.90;;;7.60;53.00;;;;;;348150;28;1021;-56
2024/01/08 00:05:08;;;;;;;6.68;5.75;;;7.60;53.00;;;;;;348265;28;1032;-55
2024/01/08 00:05:18;;;;;;;6.90;5.53;;;7.60;53.10;;;;;;348251;28;1158;-56
2024/01/08 00:05:29;;;;;;;6.97;5.35;;;7.60;53.00;;;;;;348259;28;892;-56
2024/01/08 00:05:41;;;;;;;7.82;5.43;;;7.60;53.00;;;;;;348227;28;904;-56
2024/01/08 00:05:51;;;;;;;8.13;5.57;;;7.60;53.00;;;;;;348114;28;1101;-57
2024/01/08 00:06:02;;;;;;;8.98;5.65;;;7.60;53.00;;;;;;348238;28;880;-58
2024/01/08 00:06:13;;;;;;;9.05;5.95;;;7.60;53.00;;;;;;348271;28;1079;-55
2024/01/08 00:06:24;;;;;;;8.95;6.15;;;7.60;52.90;;;;;;348260;28;1067;-55
2024/01/08 00:06:34;;;;;;;8.70;6.10;;;7.60;52.90;;;;;;348261;28;856;-55
2024/01/08 00:06:45;;;;;;;8.05;5.90;;;7.70;52.90;;;;;;348163;28;1567;-56
2024/01/08 00:06:56;;;;;;;7.20;5.43;;;7.70;52.90;;;;;;348302;28;876;-56
2024/01/08 00:07:07;;;;;;;8.27;5.78;;;7.70;52.80;;;;;;348248;28;1031;-55
2024/01/08 00:07:18;;;;;;;9.60;6.20;;;7.70;52.80;;;;;;348205;28;1012;-55
2024/01/08 00:07:29;;;;;;;9.65;6.35;;;7.70;52.70;;;;;;348143;28;1975;-56
2024/01/08 00:07:39;;;;;;;8.90;6.07;;;7.60;52.70;;;;;;348234;28;1027;-56
2024/01/08 00:07:50;;;;;;;7.57;5.90;;;7.60;52.70;;;;;;348172;28;1060;-55
2024/01/08 00:08:01;;;;;;;7.97;5.80;;;7.60;52.70;;;;;;348304;28;825;-56
2024/01/08 00:08:12;;;;;;;7.68;5.45;;;7.70;52.80;;;;;;348184;28;1106;-56
2024/01/08 00:08:22;;;;;;;8.55;5.65;;;7.70;52.80;;;;;;348164;28;1023;-56
2024/01/08 00:08:33;;;;;;;8.23;6.00;;;7.60;52.80;;;;;;348228;28;999;-56
2024/01/08 00:08:44;;;;;;;9.83;6.90;;;7.60;52.80;;;;;;348231;28;1034;-56
2024/01/08 00:08:55;;;;;;;10.32;7.22;;;7.60;52.80;;;;;;348185;28;920;-55
2024/01/08 00:09:06;;;;;;;10.90;7.53;;;7.60;52.80;;;;;;348243;28;984;-57
2024/01/08 00:09:17;;;;;;;10.05;7.07;;;7.60;52.80;;;;;;348169;28;1621;-57
2024/01/08 00:09:28;;;;;;;9.43;6.67;;;7.60;52.80;;;;;;348179;28;983;-55
2024/01/08 00:09:38;;;;;;;8.95;6.40;;;7.60;52.80;;;;;;348135;28;1276;-56
2024/01/08 00:09:49;;;;;;;9.15;6.00;;;7.70;52.80;;;;;;348261;28;990;-57
2024/01/08 00:10:00;;;;;;;8.52;5.68;;;7.60;52.80;;;;;;348187;28;983;-56
2024/01/08 00:10:11;;;;;;;9.07;5.78;;;7.60;52.80;;;;;;348277;28;833;-56
2024/01/08 00:10:21;;;;;;;8.17;5.97;;;7.60;52.80;;;;;;348227;28;1011;-55
2024/01/08 00:10:32;;;;;;;8.48;6.05;;;7.60;52.80;;;;;;348154;28;1086;-57
2024/01/08 00:10:43;;;;;;;7.47;5.53;;;7.60;52.80;;;;;;348235;28;2720;-56
2024/01/08 00:10:53;;;;;;;7.82;5.38;;;7.60;52.80;;;;;;348224;28;1090;-55
2024/01/08 00:11:04;;;;;;;7.32;5.25;;;7.60;52.80;;;;;;348204;28;1181;-57
2024/01/08 00:11:15;;;;;;;7.67;5.57;;;7.60;52.90;;;;;;348190;28;1051;-55
2024/01/08 00:11:26;;;;;;;6.95;5.43;;;7.60;52.90;;;;;;348220;28;1887;-55
2024/01/08 00:11:37;;;;;;;6.77;5.37;;;7.60;52.90;;;;;;348203;28;1132;-57
2024/01/08 00:11:48;;;;;;;7.80;5.50;;;7.60;52.90;;;;;;348204;28;1496;-55
2024/01/08 00:11:58;;;;;;;8.60;5.82;;;7.60;52.90;;;;;;348140;28;979;-56
2024/01/08 00:12:09;;;;;;;9.43;6.10;;;7.60;52.90;;;;;;348256;28;857;-57
2024/01/08 00:12:20;;;;;;;8.90;5.88;;;7.60;52.90;;;;;;348245;28;824;-55
2024/01/08 00:12:31;;;;;;;8.67;5.63;;;7.60;52.90;;;;;;348180;28;1211;-56
2024/01/08 00:12:41;;;;;;;7.60;5.43;;;7.60;52.90;;;;;;348270;28;1594;-56
2024/01/08 00:12:52;;;;;;;7.38;5.47;;;7.60;52.90;;;;;;348163;28;1169;-57
2024/01/08 00:13:03;;;;;;;6.95;5.43;;;7.60;52.90;;;;;;348182;28;1035;-56
2024/01/08 00:13:14;;;;;;;8.05;5.25;;;7.60;53.00;;;;;;348249;28;1078;-56
2024/01/08 00:13:25;;;;;;;9.02;5.43;;;7.60;53.00;;;;;;348312;28;936;-56
2024/01/08 00:13:36;;;;;;;9.27;5.30;;;7.60;52.90;;;;;;348269;28;1058;-57
2024/01/08 00:13:46;;;;;;;7.67;5.33;;;7.60;52.90;;;;;;348123;28;1091;-56
2024/01/08 00:13:57;;;;;;;7.20;5.25;;;7.60;52.90;;;;;;348242;28;829;-57
2024/01/08 00:14:08;;;;;;;7.03;5.40;;;7.60;52.80;;;;;;348222;28;975;-56
2024/01/08 00:14:19;;;;;;;7.30;5.35;;;7.60;52.90;;;;;;348218;28;999;-55
2024/01/08 00:14:30;;;;;;;6.65;5.20;;;7.60;52.90;;;;;;348286;28;801;-55
2024/01/08 00:14:41;;;;;;;7.70;5.40;;;7.60;52.80;;;;;;348069;28;1270;-56
2024/01/08 00:14:52;;;;;;;8.23;5.63;;;7.60;52.80;;;;;;348183;28;1016;-56
2024/01/08 00:15:03;;;;;;;8.77;5.60;;;7.60;52.90;;;;;;348193;28;1023;-56
2024/01/08 00:15:14;;;;;;;9.25;5.78;;;7.60;52.80;;;;;;348242;28;996;-56
2024/01/08 00:15:24;;;;;;;9.18;6.22;;;7.60;52.80;;;;;;348292;28;860;-57
2024/01/08 00:15:35;;;;;;;9.38;6.78;;;7.60;52.90;;;;;;348156;28;1051;-56
2024/01/08 00:15:46;;;;;;;9.05;6.70;;;7.60;52.90;;;;;;348272;28;1078;-55
2024/01/08 00:15:57;;;;;;;9.27;6.53;;;7.50;52.90;;;;;;348200;28;1036;-56
2024/01/08 00:16:08;;;;;;;10.30;6.90;;;7.60;52.90;;;;;;348168;28;1103;-56
2024/01/08 00:16:20;;;;;;;10.73;7.63;;;7.60;53.00;;;;;;348216;28;1094;-57
2024/01/08 00:16:31;;;;;;;10.02;7.25;;;7.50;53.00;;;;;;348160;28;1026;-57
2024/01/08 00:16:41;;;;;;;8.73;5.97;;;7.60;53.00;;;;;;348270;28;995;-56
2024/01/08 00:16:52;;;;;;;7.85;5.25;;;7.50;53.00;;;;;;348201;28;1020;-56
2024/01/08 00:17:03;;;;;;;6.82;4.82;;;7.50;53.10;;;;;;348107;28;2762;-56
2024/01/08 00:17:14;;;;;;;6.43;4.75;;;7.50;53.00;;;;;;348217;28;1094;-57
2024/01/08 00:17:24;;;;;;;8.27;4.90;;;7.50;53.00;;;;;;348263;28;1082;-56
2024/01/08 00:17:35;;;;;;;8.82;4.97;;;7.50;53.00;;;;;;348143;28;1118;-55
2024/01/08 00:17:46;;;;;;;8.45;4.75;;;7.50;53.00;;;;;;348191;28;1107;-55
2024/01/08 00:17:57;;;;;;;7.60;4.37;;;7.50;53.10;;;;;;348226;28;1875;-56
2024/01/08 00:18:08;;;;;;;6.53;4.03;;;7.50;53.10;;;;;;348147;28;993;-56
2024/01/08 00:18:20;;;;;;;7.70;4.10;;;7.50;53.00;;;;;;348175;28;1420;-55
2024/01/08 00:18:31;;;;;;;6.68;4.14;;;7.50;53.00;;;;;;348241;28;907;-55
2024/01/08 00:18:42;;;;;;;6.63;4.23;;;7.50;52.90;;;;;;348189;28;1094;-56
2024/01/08 00:18:53;;;;;;;6.43;4.30;;;7.50;53.00;;;;;;348230;28;912;-55
2024/01/08 00:19:04;;;;;;;6.50;4.28;;;7.50;52.90;;;;;;348200;28;1118;-55
2024/01/08 00:19:14;;;;;;;6.10;4.10;;;7.50;52.80;;;;;;348184;28;967;-56
2024/01/08 00:19:25;;;;;;;5.90;4.18;;;7.50;52.80;;;;;;348238;28;1003;-56
2024/01/08 00:19:36;;;;;;;5.50;4.18;;;7.50;52.80;;;;;;348211;28;959;-56
2024/01/08 00:19:47;;;;;;;5.77;4.20;;;7.50;52.80;;;;;;348191;28;983;-55
2024/01/08 00:19:57;;;;;;;6.13;4.10;;;7.40;52.80;;;;;;348150;28;1145;-56
2024/01/08 00:20:09;;;;;;;6.07;4.07;;;7.50;52.90;;;;;;348242;28;1888;-56
2024/01/08 00:20:20;;;;;;;5.55;3.90;;;7.40;52.90;;;;;;348127;28;1035;-55
2024/01/08 00:20:31;;;;;;;5.05;3.70;;;7.40;52.90;;;;;;348222;28;1122;-55
2024/01/08 00:20:42;;;;;;;6.30;3.85;;;7.40;52.90;;;;;;348211;28;1058;-56
2024/01/08 00:20:53;;;;;;;6.45;3.95;;;7.40;52.90;;;;;;348176;28;960;-55
2024/01/08 00:21:03;;;;;;;6.40;3.80;;;7.40;53.00;;;;;;348242;28;809;-55
2024/01/08 00:21:14;;;;;;;5.05;3.67;;;7.40;52.90;;;;;;348266;28;1063;-56
2024/01/08 00:21:27;;;;;;;5.00;3.83;;;7.30;52.90;;;;;;348225;28;828;-57
2024/01/08 00:21:37;;;;;;;5.90;3.70;;;7.30;53.00;;;;;;348241;28;996;-55
2024/01/08 00:21:48;;;;;;;6.38;3.75;;;7.30;53.10;;;;;;348083;28;1083;-56
2024/01/08 00:21:59;;;;;;;6.20;3.80;;;7.30;53.10;;;;;;348130;28;1393;-55
2024/01/08 00:22:10;;;;;;;5.57;3.87;;;7.30;53.10;;;;;;348207;28;979;-55
2024/01/08 00:22:21;;;;;;;5.60;3.92;;;7.30;53.10;;;;;;348255;28;1117;-55
2024/01/08 00:22:31;;;;;;;6.03;4.13;;;7.30;53.10;;;;;;348183;28;1090;-56
2024/01/08 00:22:42;;;;;;;5.75;4.18;;;7.30;53.10;;;;;;348149;28;1919;-55
2024/01/08 00:22:53;;;;;;;5.60;4.07;;;7.30;53.20;;;;;;348202;28;988;-56
2024/01/08 00:23:04;;;;;;;5.43;3.97;;;7.30;53.20;;;;;;348184;28;845;-54
2024/01/08 00:23:15;;;;;;;5.85;4.05;;;7.30;53.30;;;;;;348278;28;955;-55
2024/01/08 00:23:27;;;;;;;5.20;4.03;;;7.30;53.30;;;;;;348184;28;1529;-56
2024/01/08 00:23:38;;;;;;;5.38;4.10;;;7.20;53.30;;;;;;348074;28;1283;-55
2024/01/08 00:23:48;;;;;;;5.47;4.07;;;7.30;53.30;;;;;;348242;28;891;-55
2024/01/08 00:23:59;;;;;;;5.25;3.90;;;7.20;53.30;;;;;;348196;28;1223;-55
2024/01/08 00:24:10;;;;;;;5.63;4.03;;;7.30;53.30;;;;;;348231;28;1058;-56
2024/01/08 00:24:20;;;;;;;5.90;4.15;;;7.30;53.30;;;;;;348190;28;1089;-56
2024/01/08 00:24:31;;;;;;;5.72;4.18;;;7.20;53.30;;;;;;348147;28;911;-56
2024/01/08 00:24:42;;;;;;;6.40;4.00;;;7.20;53.30;;;;;;348229;28;904;-55
2024/01/08 00:24:53;;;;;;;6.95;3.80;;;7.20;53.30;;;;;;348157;28;1460;-56
2024/01/08 00:25:04;;;;;;;6.57;3.88;;;7.20;53.40;;;;;;348168;28;1815;-55
2024/01/08 00:25:15;;;;;;;5.53;3.83;;;7.20;53.40;;;;;;348214;28;1307;-56
2024/01/08 00:25:26;;;;;;;5.38;3.80;;;7.20;53.40;;;;;;348099;28;1123;-56
2024/01/08 00:25:37;;;;;;;5.73;4.00;;;7.20;53.40;;;;;;348219;28;1075;-55
2024/01/08 00:25:48;;;;;;;6.43;4.13;;;7.20;53.40;;;;;;348237;28;1099;-55
2024/01/08 00:25:59;;;;;;;5.85;4.07;;;7.20;53.40;;;;;;348186;28;1013;-55
2024/01/08 00:26:10;;;;;;;6.20;3.83;;;7.20;53.40;;;;;;348254;28;967;-56
2024/01/08 00:26:21;;;;;;;6.50;3.90;;;7.20;53.40;;;;;;348090;28;1221;-55
2024/01/08 00:26:32;;;;;;;7.10;4.00;;;7.20;53.40;;;;;;348181;28;1118;-56
2024/01/08 00:26:42;;;;;;;6.17;4.10;;;7.20;53.40;;;;;;348217;28;884;-58
2024/01/08 00:26:53;;;;;;;6.80;4.20;;;7.20;53.40;;;;;;348169;28;892;-56
2024/01/08 00:27:04;;;;;;;6.40;4.15;;;7.20;53.40;;;;;;348202;28;838;-56
2024/01/08 00:27:15;;;;;;;5.45;3.90;;;7.20;53.40;;;;;;348185;28;1119;-55
2024/01/08 00:27:25;;;;;;;4.80;3.67;;;7.20;53.40;;;;;;348043;28;1918;-56
2024/01/08 00:27:36;;;;;;;5.80;3.73;;;7.20;53.60;;;;;;348148;28;1034;-56
2024/01/08 00:27:49;;;;;;;7.03;4.20;;;7.20;53.70;;;;;;348206;28;1067;-54
2024/01/08 00:28:00;;;;;;;6.65;4.32;;;7.20;53.60;;;;;;348151;28;1618;-55
2024/01/08 00:28:11;;;;;;;6.10;4.13;;;7.20;53.60;;;;;;348152;28;1567;-55
2024/01/08 00:28:21;;;;;;;5.70;3.90;;;7.20;53.50;;;;;;348242;28;1027;-55
2024/01/08 00:28:32;;;;;;;5.13;3.78;;;7.20;53.50;;;;;;348178;28;1090;-55
2024/01/08 00:28:45;;;;;;;6.65;3.75;;;7.20;53.60;;;;;;348162;28;918;-55
2024/01/08 00:28:56;;;;;;;6.85;3.72;;;7.20;53.60;;;;;;348190;28;1386;-56
2024/01/08 00:29:06;;;;;;;6.28;3.90;;;7.20;53.60;;;;;;348158;28;1395;-55
2024/01/08 00:29:17;;;;;;;7.28;3.97;;;7.20;53.50;;;;;;348150;28;1081;-56
2024/01/08 00:29:28;;;;;;;7.15;4.03;;;7.10;53.50;;;;;;348228;28;903;-56
2024/01/08 00:29:39;;;;;;;5.90;3.93;;;7.20;53.40;;;;;;348154;28;1161;-56
2024/01/08 00:29:51;;;;;;;5.43;3.85;;;7.20;53.40;;;;;;348209;28;1414;-55
2024/01/08 00:30:02;;;;;;;5.25;3.63;;;7.20;53.40;;;;;;348078;28;2549;-56
2024/01/08 00:30:13;;;;;;;6.00;3.88;;;7.20;53.50;;;;;;348172;28;1115;-56
2024/01/08 00:30:24;;;;;;;6.57;3.78;;;7.10;53.50;;;;;;348260;28;849;-56
2024/01/08 00:30:34;;;;;;;7.00;4.10;;;7.10;53.50;;;;;;348131;28;1094;-57
2024/01/08 00:30:45;;;;;;;7.22;4.00;;;7.10;53.60;;;;;;348167;28;1403;-57
2024/01/08 00:30:56;;;;;;;6.78;4.20;;;7.10;53.60;;;;;;348202;28;1181;-55
2024/01/08 00:31:07;;;;;;;5.90;3.95;;;7.10;53.70;;;;;;348202;28;1039;-56
2024/01/08 00:31:17;;;;;;;5.10;3.92;;;7.10;53.70;;;;;;348160;28;1063;-55
2024/01/08 00:31:28;;;;;;;5.07;3.88;;;7.10;53.70;;;;;;348168;28;1512;-55
2024/01/08 00:31:39;;;;;;;5.60;3.80;;;7.10;53.70;;;;;;348253;28;1047;-55
2024/01/08 00:31:50;;;;;;;5.87;3.80;;;7.10;53.60;;;;;;348130;28;1015;-56
2024/01/08 00:32:01;;;;;;;5.80;3.90;;;7.10;53.60;;;;;;348213;28;1007;-56
2024/01/08 00:32:11;;;;;;;5.60;4.00;;;7.10;53.50;;;;;;348174;28;984;-56
2024/01/08 00:32:22;;;;;;;5.47;3.95;;;7.00;53.50;;;;;;348211;28;1003;-55
2024/01/08 00:32:33;;;;;;;6.05;3.80;;;7.10;53.60;;;;;;348177;28;1055;-55
2024/01/08 00:32:44;;;;;;;6.37;3.73;;;7.00;53.70;;;;;;348295;28;897;-54
2024/01/08 00:32:54;;;;;;;6.28;3.85;;;7.00;53.70;;;;;;348198;28;1179;-55
2024/01/08 00:33:05;;;;;;;6.05;3.85;;;7.10;53.80;;;;;;348117;28;1074;-55
2024/01/08 00:33:16;;;;;;;6.47;4.03;;;7.00;53.80;;;;;;348201;28;1067;-55
2024/01/08 00:33:27;;;;;;;6.30;4.10;;;7.00;53.70;;;;;;348224;28;856;-55
2024/01/08 00:33:38;;;;;;;6.25;4.10;;;7.00;53.70;;;;;;348154;28;1944;-55
2024/01/08 00:33:48;;;;;;;5.55;3.90;;;7.10;53.70;;;;;;348140;28;1070;-56
2024/01/08 00:33:59;;;;;;;5.17;3.80;;;7.00;53.70;;;;;;348245;28;1034;-55
2024/01/08 00:34:10;;;;;;;5.07;3.72;;;7.00;53.70;;;;;;348238;28;888;-56
2024/01/08 00:34:21;;;;;;;5.28;3.83;;;7.00;53.70;;;;;;348175;28;1042;-54
2024/01/08 00:34:32;;;;;;;5.20;3.78;;;7.00;53.70;;;;;;348181;28;1003;-55
2024/01/08 00:34:43;;;;;;;5.53;4.00;;;7.00;53.70;;;;;;348230;28;1063;-56
2024/01/08 00:34:53;;;;;;;5.47;3.92;;;7.00;53.60;;;;;;348186;28;1231;-56
2024/01/08 00:35:05;;;;;;;5.75;3.95;;;7.00;53.60;;;;;;348180;28;1003;-55
2024/01/08 00:35:15;;;;;;;6.30;3.83;;;7.00;53.50;;;;;;348185;28;996;-56
2024/01/08 00:35:26;;;;;;;6.45;3.88;;;7.00;53.50;;;;;;348206;28;1070;-56
2024/01/08 00:35:37;;;;;;;6.57;3.97;;;7.00;53.50;;;;;;348077;28;1406;-55
2024/01/08 00:35:48;;;;;;;6.60;4.07;;;7.00;53.50;;;;;;348241;28;1006;-56
2024/01/08 00:35:58;;;;;;;6.38;4.00;;;7.00;53.50;;;;;;348220;28;956;-56
2024/01/08 00:36:09;;;;;;;6.38;3.92;;;6.90;53.70;;;;;;348179;28;901;-54
2024/01/08 00:36:22;;;;;;;6.78;4.03;;;6.90;53.70;;;;;;348247;28;948;-54
2024/01/08 00:36:34;;;;;;;6.50;3.92;;;6.90;53.80;;;;;;348267;28;1027;-55
2024/01/08 00:36:46;;;;;;;5.72;4.05;;;6.90;53.70;;;;;;348117;28;1053;-56
2024/01/08 00:36:57;;;;;;;5.85;4.18;;;6.90;53.70;;;;;;348220;28;1106;-55
2024/01/08 00:37:07;;;;;;;5.97;4.25;;;6.90;53.60;;;;;;348225;28;1097;-56
2024/01/08 00:37:18;;;;;;;6.20;4.40;;;6.90;53.50;;;;;;348193;28;1002;-56
2024/01/08 00:37:29;;;;;;;7.45;4.47;;;6.90;53.50;;;;;;348251;28;923;-55
2024/01/08 00:37:42;;;;;;;8.10;4.50;;;6.90;53.50;;;;;;348160;28;1012;-55
2024/01/08 00:37:53;;;;;;;7.80;4.18;;;6.90;53.50;;;;;;348137;28;991;-55
2024/01/08 00:38:04;;;;;;;5.88;3.78;;;6.90;53.50;;;;;;348200;28;900;-55
2024/01/08 00:38:15;;;;;;;6.85;3.83;;;6.90;53.50;;;;;;348237;28;1094;-54
2024/01/08 00:38:25;;;;;;;7.38;4.20;;;6.90;53.50;;;;;;348107;28;1932;-56
2024/01/08 00:38:36;;;;;;;7.18;4.22;;;6.90;53.40;;;;;;348257;28;1082;-61
2024/01/08 00:38:47;;;;;;;5.67;4.13;;;6.90;53.40;;;;;;348192;28;904;-56
2024/01/08 00:38:58;;;;;;;5.15;3.97;;;6.90;53.40;;;;;;348094;28;1031;-56
2024/01/08 00:39:11;;;;;;;5.45;4.05;;;6.80;53.50;;;;;;348227;28;861;-56
2024/01/08 00:39:23;;;;;;;6.60;3.85;;;6.90;53.60;;;;;;348252;28;1234;-56
2024/01/08 00:39:33;;;;;;;6.97;3.80;;;6.90;53.60;;;;;;348112;28;1019;-55
2024/01/08 00:39:44;;;;;;;6.80;3.88;;;6.90;53.70;;;;;;348274;28;896;-56
2024/01/08 00:39:55;;;;;;;5.57;4.00;;;;;;;;;;348179;28;1051;-56
2024/01/08 00:40:07;;;;;;;5.70;4.00;;;;;;;;;;348131;28;1015;-55
2024/01/08 00:40:19;;;;;;;5.72;4.10;;;;;;;;;;348251;28;852;-55
2024/01/08 00:40:30;;;;;;;6.00;3.97;;;;;;;;;;348217;28;918;-55
2024/01/08 00:40:40;;;;;;;6.03;4.07;;;7.10;53.50;;;;;;348135;28;972;-57
2024/01/08 00:40:51;;;;;;;5.83;4.00;;;7.00;53.50;;;;;;348272;28;809;-55
2024/01/08 00:41:02;;;;;;;5.28;3.90;;;7.00;53.30;;;;;;348256;28;876;-56
2024/01/08 00:41:13;;;;;;;5.57;3.97;;;6.90;53.30;;;;;;348185;28;903;-55
2024/01/08 00:41:24;;;;;;;5.40;4.00;;;6.90;53.40;;;;;;348246;28;829;-55
2024/01/08 00:41:35;;;;;;;5.78;3.90;;;6.90;53.50;;;;;;348250;28;876;-56
2024/01/08 00:41:46;;;;;;;6.18;3.90;;;6.80;53.50;;;;;;348116;28;1576;-55
2024/01/08 00:41:57;;;;;;;6.88;3.95;;;6.80;53.50;;;;;;348148;28;1177;-55
2024/01/08 00:42:07;;;;;;;6.13;3.90;;;6.90;53.50;;;;;;348014;28;1558;-54
2024/01/08 00:42:18;;;;;;;5.95;3.97;;;6.80;53.60;;;;;;348223;28;1014;-56
2024/01/08 00:42:29;;;;;;;7.73;4.20;;;6.80;53.60;;;;;;348182;28;1112;-56
2024/01/08 00:42:40;;;;;;;9.10;4.65;;;6.80;53.70;;;;;;348177;28;981;-55
2024/01/08 00:42:50;;;;;;;8.55;4.55;;;6.80;53.70;;;;;;348190;28;1027;-56
2024/01/08 00:43:01;;;;;;;6.97;4.30;;;6.80;53.70;;;;;;348214;28;1010;-56
2024/01/08 00:43:12;;;;;;;6.47;4.25;;;6.80;53.70;;;;;;348186;28;1099;-56
2024/01/08 00:43:23;;;;;;;7.20;4.30;;;6.80;53.70;;;;;;348184;28;1815;-55
2024/01/08 00:43:33;;;;;;;7.10;4.33;;;6.80;53.70;;;;;;348183;28;1059;-55
2024/01/08 00:43:44;;;;;;;7.38;4.20;;;6.80;53.80;;;;;;348238;28;817;-56
2024/01/08 00:43:55;;;;;;;7.38;4.28;;;6.80;53.80;;;;;;348173;28;1106;-55
2024/01/08 00:44:06;;;;;;;6.90;4.40;;;6.80;53.80;;;;;;348180;28;1035;-56
2024/01/08 00:44:17;;;;;;;7.28;4.63;;;6.80;53.80;;;;;;348232;28;1087;-55
2024/01/08 00:44:27;;;;;;;6.72;4.60;;;6.80;53.80;;;;;;348233;28;1023;-55
2024/01/08 00:44:38;;;;;;;7.53;4.50;;;6.80;53.90;;;;;;348388;28;1064;-53
2024/01/08 00:44:49;;;;;;;7.70;4.43;;;6.80;53.90;;;;;;348451;28;901;-55
2024/01/08 00:45:00;;;;;;;8.43;4.53;;;6.80;54.00;;;;;;348447;28;1090;-55
2024/01/08 00:45:10;;;;;;;7.03;4.40;;;6.80;54.00;;;;;;348468;28;1422;-55
2024/01/08 00:45:21;;;;;;;6.47;4.28;;;6.80;54.00;;;;;;348420;28;1086;-55
2024/01/08 00:45:32;;;;;;;5.57;4.10;;;6.80;54.00;;;;;;348369;28;1114;-55
2024/01/08 00:45:43;;;;;;;6.30;4.33;;;6.70;54.00;;;;;;348492;28;1027;-54
2024/01/08 00:45:53;;;;;;;6.57;4.57;;;6.70;54.00;;;;;;348526;28;828;-55
2024/01/08 00:46:04;;;;;;;7.38;4.60;;;6.80;54.00;;;;;;348403;28;1075;-55
2024/01/08 00:46:15;;;;;;;6.60;4.22;;;6.70;54.00;;;;;;348391;28;1102;-55
2024/01/08 00:46:26;;;;;;;6.35;3.83;;;6.70;54.00;;;;;;348468;28;1038;-54
2024/01/08 00:46:36;;;;;;;5.47;3.80;;;6.80;54.00;;;;;;348414;28;1264;-55
2024/01/08 00:46:47;;;;;;;5.68;3.85;;;6.70;54.00;;;;;;348486;28;840;-55
2024/01/08 00:46:58;;;;;;;5.47;3.95;;;6.80;54.00;;;;;;348446;28;1173;-55
2024/01/08 00:47:09;;;;;;;6.22;4.10;;;6.70;54.00;;;;;;348404;28;1082;-54
2024/01/08 00:47:19;;;;;;;6.45;4.35;;;6.70;54.00;;;;;;348446;28;1102;-56
2024/01/08 00:47:30;;;;;;;6.23;4.50;;;6.80;54.00;;;;;;348380;28;1909;-55
2024/01/08 00:47:41;;;;;;;7.13;4.68;;;6.70;54.20;;;;;;348481;28;1001;-55
2024/01/08 00:47:52;;;;;;;6.60;4.40;;;6.70;54.20;;;;;;348429;28;1110;-56
2024/01/08 00:48:04;;;;;;;7.47;4.35;;;6.70;54.20;;;;;;348386;28;959;-55
2024/01/08 00:48:15;;;;;;;7.20;4.43;;;6.70;54.20;;;;;;348493;28;1075;-56
2024/01/08 00:48:25;;;;;;;7.82;4.53;;;6.70;54.20;;;;;;348411;28;1095;-56
2024/01/08 00:48:36;;;;;;;7.40;4.40;;;;;;;;;;348488;28;1019;-56
2024/01/08 00:48:48;;;;;;;6.70;4.20;;;;;;;;;;348461;28;934;-56
2024/01/08 00:48:59;;;;;;;6.40;4.15;;;;;;;;;;348350;28;995;-54
2024/01/08 00:49:10;;;;;;;6.47;4.05;;;;;;;;;;348531;28;885;-56
2024/01/08 00:49:21;;;;;;;6.88;4.25;;;;;;;;;;348446;28;1983;-56
2024/01/08 00:49:32;;;;;;;6.65;4.20;;;;;;;;;;348491;28;1047;-56
2024/01/08 00:49:43;;;;;;;6.40;4.32;;;7.20;52.90;;;;;;348489;28;1651;-56
2024/01/08 00:49:54;;;;;;;5.53;4.20;;;7.10;52.90;;;;;;348481;28;957;-56
2024/01/08 00:50:05;;;;;;;5.85;4.32;;;7.00;53.00;;;;;;348478;28;1126;-56
2024/01/08 00:50:17;;;;;;;6.10;4.38;;;6.90;53.20;;;;;;348531;28;853;-56
2024/01/08 00:50:27;;;;;;;7.00;4.40;;;6.80;53.30;;;;;;348425;28;1109;-58
2024/01/08 00:50:38;;;;;;;7.10;4.40;;;6.80;53.40;;;;;;348522;28;1046;-55
2024/01/08 00:50:51;;;;;;;7.18;4.50;;;6.80;53.50;;;;;;348446;28;1701;-56
2024/01/08 00:51:02;;;;;;;6.55;4.43;;;6.80;53.60;;;;;;348472;28;1046;-55
2024/01/08 00:51:13;;;;;;;6.55;4.30;;;6.80;53.70;;;;;;348511;28;1015;-55
2024/01/08 00:51:23;;;;;;;7.70;4.35;;;6.80;53.90;;;;;;348451;28;1505;-55
2024/01/08 00:51:34;;;;;;;7.75;4.68;;;6.80;54.00;;;;;;348442;28;1905;-56
2024/01/08 00:51:45;;;;;;;7.57;4.50;;;6.70;54.00;;;;;;348489;28;1045;-56
2024/01/08 00:51:56;;;;;;;5.80;4.23;;;6.80;54.00;;;;;;348488;28;1066;-55
2024/01/08 00:52:06;;;;;;;5.45;4.13;;;6.80;54.00;;;;;;348479;28;852;-56
2024/01/08 00:52:17;;;;;;;6.10;4.15;;;6.70;54.00;;;;;;348490;28;918;-55
2024/01/08 00:52:28;;;;;;;6.95;4.38;;;6.70;54.00;;;;;;348501;28;1038;-55
2024/01/08 00:52:42;;;;;;;7.00;4.30;;;6.70;54.00;;;;;;348429;28;1042;-55
2024/01/08 00:52:53;;;;;;;5.82;4.10;;;6.70;54.00;;;;;;348516;28;841;-56
2024/01/08 00:53:03;;;;;;;5.53;4.00;;;6.70;54.00;;;;;;348401;28;1425;-56
2024/01/08 00:53:14;;;;;;;5.47;4.20;;;6.70;54.00;;;;;;348537;28;1024;-55
2024/01/08 00:53:25;;;;;;;6.47;4.50;;;6.70;54.20;;;;;;348457;28;1015;-54
2024/01/08 00:53:36;;;;;;;7.53;4.88;;;6.70;54.20;;;;;;348289;28;1004;-56
2024/01/08 00:53:46;;;;;;;7.53;4.80;;;6.70;54.20;;;;;;348546;28;821;-55
2024/01/08 00:53:57;;;;;;;6.93;4.60;;;6.70;54.20;;;;;;348501;28;1018;-55
2024/01/08 00:54:08;;;;;;;5.70;4.15;;;6.70;54.30;;;;;;348399;28;1301;-56
2024/01/08 00:54:19;;;;;;;5.70;3.97;;;6.70;54.30;;;;;;348446;28;998;-56
2024/01/08 00:54:29;;;;;;;6.07;4.07;;;6.70;54.30;;;;;;348435;28;1035;-55
2024/01/08 00:54:40;;;;;;;6.93;4.10;;;6.70;54.30;;;;;;348375;28;1027;-56
2024/01/08 00:54:51;;;;;;;8.13;4.40;;;6.70;54.30;;;;;;348487;28;1047;-55
2024/01/08 00:55:04;;;;;;;7.73;4.37;;;6.60;54.30;;;;;;348428;28;1019;-55
2024/01/08 00:55:15;;;;;;;6.50;4.18;;;6.70;54.40;;;;;;348520;28;920;-55
2024/01/08 00:55:26;;;;;;;6.80;4.20;;;6.60;54.50;;;;;;348336;28;1110;-55
2024/01/08 00:55:37;;;;;;;6.45;4.20;;;6.60;54.40;;;;;;348469;28;988;-56
2024/01/08 00:55:48;;;;;;;6.00;4.07;;;6.60;54.40;;;;;;348500;28;1003;-56
2024/01/08 00:55:58;;;;;;;5.03;3.90;;;6.60;54.40;;;;;;348483;28;987;-56
2024/01/08 00:56:09;;;;;;;5.35;4.00;;;6.60;54.40;;;;;;348481;28;976;-56
2024/01/08 00:56:20;;;;;;;5.40;4.00;;;6.60;54.40;;;;;;348370;28;1578;-55
2024/01/08 00:56:31;;;;;;;6.03;4.15;;;6.60;54.50;;;;;;348441;28;1020;-55
2024/01/08 00:56:42;;;;;;;6.30;4.00;;;6.60;54.50;;;;;;348552;28;781;-56
2024/01/08 00:56:52;;;;;;;6.33;4.00;;;6.60;54.50;;;;;;348384;28;1091;-58
2024/01/08 00:57:03;;;;;;;6.00;3.78;;;6.60;54.50;;;;;;348464;28;1368;-54
2024/01/08 00:57:14;;;;;;;5.78;3.80;;;6.60;54.50;;;;;;348546;28;948;-55
2024/01/08 00:57:25;;;;;;;5.82;3.85;;;6.60;54.50;;;;;;348514;28;786;-56
2024/01/08 00:57:36;;;;;;;5.38;4.00;;;6.60;54.60;;;;;;348532;28;1003;-56
2024/01/08 00:57:46;;;;;;;5.72;4.10;;;6.50;54.60;;;;;;348432;28;999;-55
2024/01/08 00:57:58;;;;;;;5.73;4.07;;;6.60;54.60;;;;;;348563;28;1027;-56
2024/01/08 00:58:09;;;;;;;5.45;3.88;;;6.60;54.50;;;;;;348416;28;1114;-55
2024/01/08 00:58:20;;;;;;;5.15;3.70;;;6.60;54.50;;;;;;348536;28;1560;-57
2024/01/08 00:58:31;;;;;;;4.63;3.47;;;6.60;54.50;;;;;;348549;28;1019;-56
2024/01/08 00:58:43;;;;;;;4.88;3.60;;;6.60;54.60;;;;;;348401;28;1128;-54
2024/01/08 00:58:56;;;;;;;4.93;3.47;;;6.60;54.70;;;;;;348444;28;1233;-56
2024/01/08 00:59:06;;;;;;;4.97;3.60;;;6.60;54.60;;;;;;348372;28;1107;-54
2024/01/08 00:59:17;;;;;;;5.45;3.78;;;6.60;54.70;;;;;;348470;28;1000;-63
2024/01/08 00:59:28;;;;;;;5.55;3.95;;;6.60;54.80;;;;;;348436;28;1006;-56
2024/01/08 00:59:39;;;;;;;5.20;3.90;;;6.60;54.70;;;;;;348447;28;980;-56
2024/01/08 00:59:49;;;;;;;5.20;4.10;;;6.60;54.70;;;;;;348493;28;1407;-55